sensor_id;sensor_type;location;lat;lon;timestamp;temperature;humidity
18260;DHT22;9256;52.236;5.712;2023-06-10T19:22:23;25.60;99.90
18260;DHT22;9256;52.236;5.712;2023-06-10T19:24:58;25.40;99.90
18260;DHT22;9256;52.236;5.712;2023-06-10T19:27:26;25.30;99.90
18260;DHT22;9256;52.236;5.712;2023-06-10T19:29:53;25.20;99.90
18260;DHT22;9256;52.236;5.712;2023-06-10T19:32:20;25.10;99.90
18260;DHT22;9256;52.236;5.712;2023-06-10T19:34:48;24.90;99.90
18260;DHT22;9256;52.236;5.712;2023-06-10T19:37:15;24.90;99.90
18260;DHT22;9256;52.236;5.712;2023-06-10T19:39:42;24.80;99.90
18260;DHT22;9256;52.236;5.712;2023-06-10T19:42:10;24.70;99.90
18260;DHT22;9256;52.236;5.712;2023-06-10T19:44:37;24.60;99.90
18260;DHT22;9256;52.236;5.712;2023-06-10T19:47:05;24.50;99.90
18260;DHT22;9256;52.236;5.712;2023-06-10T19:49:32;24.50;99.90
18260;DHT22;9256;52.236;5.712;2023-06-10T19:52:00;24.50;99.90
18260;DHT22;9256;52.236;5.712;2023-06-10T19:54:31;24.40;99.90
18260;DHT22;9256;52.236;5.712;2023-06-10T19:56:58;24.40;99.90
18260;DHT22;9256;52.236;5.712;2023-06-10T19:59:25;24.20;99.90
18260;DHT22;9256;52.236;5.712;2023-06-10T20:01:52;24.20;99.90
18260;DHT22;9256;52.236;5.712;2023-06-10T20:04:19;24.00;99.90
18260;DHT22;9256;52.236;5.712;2023-06-10T20:06:46;23.90;99.90
18260;DHT22;9256;52.236;5.712;2023-06-10T20:09:14;23.80;99.90
18260;DHT22;9256;52.236;5.712;2023-06-10T20:11:41;23.60;99.90
18260;DHT22;9256;52.236;5.712;2023-06-10T20:14:08;23.50;99.90
18260;DHT22;9256;52.236;5.712;2023-06-10T20:16:35;23.40;99.90
18260;DHT22;9256;52.236;5.712;2023-06-10T20:19:02;23.30;99.90
18260;DHT22;9256;52.236;5.712;2023-06-10T20:21:29;23.30;99.90
18260;DHT22;9256;52.236;5.712;2023-06-10T20:23:56;23.20;99.90
18260;DHT22;9256;52.236;5.712;2023-06-10T20:26:24;23.10;99.90
18260;DHT22;9256;52.236;5.712;2023-06-10T20:28:51;23.00;99.90
18260;DHT22;9256;52.236;5.712;2023-06-10T20:31:18;22.80;99.90
18260;DHT22;9256;52.236;5.712;2023-06-10T20:33:46;22.60;99.90
18260;DHT22;9256;52.236;5.712;2023-06-10T20:36:13;22.50;99.90
18260;DHT22;9256;52.236;5.712;2023-06-10T20:38:41;22.40;99.90
18260;DHT22;9256;52.236;5.712;2023-06-10T20:41:08;22.30;99.90
18260;DHT22;9256;52.236;5.712;2023-06-10T20:43:36;22.20;99.90
18260;DHT22;9256;52.236;5.712;2023-06-10T20:46:03;22.20;99.90
18260;DHT22;9256;52.236;5.712;2023-06-10T20:48:30;22.10;99.90
18260;DHT22;9256;52.236;5.712;2023-06-10T20:50:57;22.00;99.90
18260;DHT22;9256;52.236;5.712;2023-06-10T20:53:24;21.90;99.90
18260;DHT22;9256;52.236;5.712;2023-06-10T20:55:51;21.80;99.90
18260;DHT22;9256;52.236;5.712;2023-06-10T20:58:18;21.70;99.90
18260;DHT22;9256;52.236;5.712;2023-06-10T21:00:46;21.60;99.90
18260;DHT22;9256;52.236;5.712;2023-06-10T21:03:13;21.50;99.90
18260;DHT22;9256;52.236;5.712;2023-06-10T21:05:40;21.50;99.90
18260;DHT22;9256;52.236;5.712;2023-06-10T21:08:07;21.50;99.90
18260;DHT22;9256;52.236;5.712;2023-06-10T21:10:34;21.50;99.90
18260;DHT22;9256;52.236;5.712;2023-06-10T21:13:01;21.50;99.90
18260;DHT22;9256;52.236;5.712;2023-06-10T21:15:27;21.50;99.90
18260;DHT22;9256;52.236;5.712;2023-06-10T21:17:56;21.50;99.90
18260;DHT22;9256;52.236;5.712;2023-06-10T21:20:23;21.40;99.90
18260;DHT22;9256;52.236;5.712;2023-06-10T21:22:49;21.40;99.90
18260;DHT22;9256;52.236;5.712;2023-06-10T21:25:17;21.30;99.90
18260;DHT22;9256;52.236;5.712;2023-06-10T21:27:44;21.30;99.90
18260;DHT22;9256;52.236;5.712;2023-06-10T21:30:11;21.30;99.90
18260;DHT22;9256;52.236;5.712;2023-06-10T21:32:38;21.20;99.90
18260;DHT22;9256;52.236;5.712;2023-06-10T21:35:07;21.20;99.90
18260;DHT22;9256;52.236;5.712;2023-06-10T21:37:34;21.10;99.90
18260;DHT22;9256;52.236;5.712;2023-06-10T21:40:00;21.10;99.90
18260;DHT22;9256;52.236;5.712;2023-06-10T21:42:27;20.90;99.90
18260;DHT22;9256;52.236;5.712;2023-06-10T21:44:54;20.90;99.90
18260;DHT22;9256;52.236;5.712;2023-06-10T21:47:21;20.80;99.90
18260;DHT22;9256;52.236;5.712;2023-06-10T21:49:48;20.80;99.90
18260;DHT22;9256;52.236;5.712;2023-06-10T21:52:16;20.70;99.90
18260;DHT22;9256;52.236;5.712;2023-06-10T21:54:43;20.70;99.90
18260;DHT22;9256;52.236;5.712;2023-06-10T21:57:10;20.70;99.90
18260;DHT22;9256;52.236;5.712;2023-06-10T21:59:37;20.60;99.90
18260;DHT22;9256;52.236;5.712;2023-06-10T22:02:06;20.60;99.90
18260;DHT22;9256;52.236;5.712;2023-06-10T22:04:34;20.60;99.90
18260;DHT22;9256;52.236;5.712;2023-06-10T22:07:01;20.70;99.90
18260;DHT22;9256;52.236;5.712;2023-06-10T22:09:30;20.70;99.90
18260;DHT22;9256;52.236;5.712;2023-06-10T22:11:56;20.60;99.90
18260;DHT22;9256;52.236;5.712;2023-06-10T22:14:23;20.60;99.90
18260;DHT22;9256;52.236;5.712;2023-06-10T22:16:50;20.50;99.90
18260;DHT22;9256;52.236;5.712;2023-06-10T22:19:17;20.40;99.90
18260;DHT22;9256;52.236;5.712;2023-06-10T22:21:45;20.40;99.90
18260;DHT22;9256;52.236;5.712;2023-06-10T22:24:12;20.30;99.90
18260;DHT22;9256;52.236;5.712;2023-06-10T22:26:40;20.30;99.90
18260;DHT22;9256;52.236;5.712;2023-06-10T22:29:07;20.20;99.90
18260;DHT22;9256;52.236;5.712;2023-06-10T22:31:34;20.20;99.90
18260;DHT22;9256;52.236;5.712;2023-06-10T22:34:01;20.10;99.90
18260;DHT22;9256;52.236;5.712;2023-06-10T22:36:27;20.10;99.90
18260;DHT22;9256;52.236;5.712;2023-06-10T22:38:54;20.10;99.90
18260;DHT22;9256;52.236;5.712;2023-06-10T22:41:21;20.00;99.90
18260;DHT22;9256;52.236;5.712;2023-06-10T22:43:49;20.00;99.90
18260;DHT22;9256;52.236;5.712;2023-06-10T22:46:17;20.00;99.90
18260;DHT22;9256;52.236;5.712;2023-06-10T22:48:44;20.00;99.90
18260;DHT22;9256;52.236;5.712;2023-06-10T22:51:11;19.90;99.90
18260;DHT22;9256;52.236;5.712;2023-06-10T22:53:38;20.00;99.90
18260;DHT22;9256;52.236;5.712;2023-06-10T22:56:05;20.00;99.90
18260;DHT22;9256;52.236;5.712;2023-06-10T22:58:32;20.00;99.90
18260;DHT22;9256;52.236;5.712;2023-06-10T23:01:00;19.90;99.90
18260;DHT22;9256;52.236;5.712;2023-06-10T23:03:27;19.80;99.90
18260;DHT22;9256;52.236;5.712;2023-06-10T23:05:54;19.80;99.90
18260;DHT22;9256;52.236;5.712;2023-06-10T23:08:20;19.80;99.90
18260;DHT22;9256;52.236;5.712;2023-06-10T23:10:47;19.70;99.90
18260;DHT22;9256;52.236;5.712;2023-06-10T23:13:14;19.70;99.90
18260;DHT22;9256;52.236;5.712;2023-06-10T23:15:41;19.50;99.90
18260;DHT22;9256;52.236;5.712;2023-06-10T23:18:09;19.40;99.90
18260;DHT22;9256;52.236;5.712;2023-06-10T23:20:38;19.50;99.90
18260;DHT22;9256;52.236;5.712;2023-06-10T23:23:06;19.50;99.90
18260;DHT22;9256;52.236;5.712;2023-06-10T23:25:33;19.30;99.90
18260;DHT22;9256;52.236;5.712;2023-06-10T23:28:01;19.30;99.90
18260;DHT22;9256;52.236;5.712;2023-06-10T23:30:27;19.30;99.90
18260;DHT22;9256;52.236;5.712;2023-06-10T23:32:54;19.30;99.90
18260;DHT22;9256;52.236;5.712;2023-06-10T23:35:23;19.20;99.90
18260;DHT22;9256;52.236;5.712;2023-06-10T23:37:50;19.20;99.90
18260;DHT22;9256;52.236;5.712;2023-06-10T23:40:17;19.10;99.90
18260;DHT22;9256;52.236;5.712;2023-06-10T23:42:45;19.10;99.90
18260;DHT22;9256;52.236;5.712;2023-06-10T23:45:12;19.10;99.90
18260;DHT22;9256;52.236;5.712;2023-06-10T23:47:39;19.00;99.90
18260;DHT22;9256;52.236;5.712;2023-06-10T23:50:07;19.00;99.90
18260;DHT22;9256;52.236;5.712;2023-06-10T23:52:35;19.00;99.90
18260;DHT22;9256;52.236;5.712;2023-06-10T23:55:02;19.00;99.90
18260;DHT22;9256;52.236;5.712;2023-06-10T23:57:29;18.90;99.90
18260;DHT22;9256;52.236;5.712;2023-06-10T23:59:56;18.80;99.90
